createdAt,value
2019-03-20T00:01:22.709Z,6.20
2019-03-20T00:03:54.054Z,5.23
2019-03-20T00:06:34.589Z,5.87
2019-03-20T00:09:15.346Z,7.03
2019-03-20T00:11:44.878Z,6.47
2019-03-20T00:14:19.913Z,6.30
2019-03-20T00:16:51.506Z,4.50
2019-03-20T00:19:31.329Z,5.63
2019-03-20T00:22:05.057Z,5.37
2019-03-20T00:24:41.183Z,6.23
2019-03-20T00:27:17.438Z,8.37
2019-03-20T00:29:46.569Z,6.93
2019-03-20T00:32:25.813Z,4.53
2019-03-20T00:35:01.167Z,8.80
2019-03-20T00:37:40.522Z,4.77
2019-03-20T00:40:12.448Z,6.30
2019-03-20T00:42:41.778Z,4.33
2019-03-20T00:45:11.904Z,6.23
2019-03-20T00:47:42.027Z,6.47
2019-03-20T00:50:13.586Z,5.17
2019-03-20T00:52:42.967Z,7.73
2019-03-20T00:55:13.394Z,7.37
2019-03-20T00:57:42.657Z,7.50
2019-03-20T01:00:22.575Z,6.90
2019-03-20T01:02:54.787Z,8.50
2019-03-20T01:05:24.754Z,5.57
2019-03-20T01:07:53.966Z,7.67
2019-03-20T01:10:28.534Z,6.13
2019-03-20T01:13:06.066Z,8.60
2019-03-20T01:15:38.413Z,7.90
2019-03-20T01:18:15.474Z,7.27
2019-03-20T01:20:50.396Z,7.33
2019-03-20T01:23:19.503Z,6.60
2019-03-20T01:25:48.608Z,6.37
2019-03-20T01:28:20.066Z,6.93
2019-03-20T01:30:49.150Z,6.83
2019-03-20T01:33:20.371Z,5.87
2019-03-20T01:35:58.908Z,8.17
2019-03-20T01:38:35.554Z,7.67
2019-03-20T01:41:10.723Z,6.40
2019-03-20T01:43:43.098Z,7.43
2019-03-20T01:46:27.839Z,6.47
2019-03-20T01:49:03.202Z,6.27
2019-03-20T01:51:44.290Z,6.93
2019-03-20T01:54:21.455Z,6.90
2019-03-20T01:57:06.886Z,7.70
2019-03-20T01:59:45.082Z,5.87
2019-03-20T02:02:14.329Z,9.10
2019-03-20T02:04:43.436Z,7.13
2019-03-20T02:07:31.728Z,6.77
2019-03-20T02:10:07.754Z,8.87
2019-03-20T02:12:41.315Z,6.33
2019-03-20T02:15:37.982Z,6.97
2019-03-20T02:18:07.899Z,6.07
2019-03-20T02:20:40.104Z,6.60
2019-03-20T02:23:09.273Z,6.50
2019-03-20T02:25:38.742Z,6.67
2019-03-20T02:28:07.929Z,7.97
2019-03-20T02:30:37.047Z,4.87
2019-03-20T02:33:09.311Z,5.23
2019-03-20T02:35:56.583Z,5.23
2019-03-20T02:38:27.996Z,5.83
2019-03-20T02:41:14.812Z,4.37
2019-03-20T02:43:45.977Z,5.60
2019-03-20T02:46:32.183Z,5.97
2019-03-20T02:49:05.563Z,6.60
2019-03-20T02:51:35.037Z,5.97
2019-03-20T02:54:14.909Z,5.67
2019-03-20T02:56:46.619Z,5.60
2019-03-20T02:59:19.951Z,8.30
2019-03-20T03:08:50.867Z,4.73
2019-03-20T03:15:01.504Z,6.93
2019-03-20T03:21:11.815Z,5.70
2019-03-20T03:27:22.347Z,6.80
2019-03-20T03:33:32.473Z,7.90
2019-03-20T03:36:55.521Z,9.77
2019-03-20T03:43:05.916Z,7.27
2019-03-20T03:49:16.187Z,6.80
2019-03-20T03:52:39.238Z,5.80
2019-03-20T03:58:49.416Z,5.73
2019-03-20T04:02:21.461Z,7.10
2019-03-20T04:05:13.995Z,9.73
2019-03-20T04:07:50.048Z,6.20
2019-03-20T04:10:19.319Z,6.87
2019-03-20T04:12:57.573Z,7.30
2019-03-20T04:21:38.944Z,9.23
2019-03-20T04:27:49.232Z,9.20
2019-03-20T04:33:59.433Z,7.43
2019-03-20T04:37:22.783Z,9.40
2019-03-20T04:43:33.132Z,7.13
2019-03-20T04:46:56.138Z,7.40
2019-03-20T04:53:06.560Z,7.60
2019-03-20T04:56:29.971Z,6.93
2019-03-20T05:02:40.444Z,9.57
2019-03-20T05:08:50.656Z,7.83
2019-03-20T05:15:01.212Z,6.13
2019-03-20T05:17:37.558Z,7.97
2019-03-20T05:20:08.558Z,8.20
2019-03-20T05:22:38.834Z,7.77
2019-03-20T05:25:23.862Z,7.43
2019-03-20T05:27:53.344Z,7.53
2019-03-20T05:30:24.718Z,7.47
2019-03-20T05:32:53.910Z,6.60
2019-03-20T05:35:23.087Z,6.70
2019-03-20T05:37:55.442Z,12.87
2019-03-20T05:40:24.900Z,6.23
2019-03-20T05:43:06.190Z,6.77
2019-03-20T05:45:42.868Z,7.63
2019-03-20T05:48:21.142Z,7.80
2019-03-20T05:50:50.318Z,7.90
2019-03-20T05:53:19.459Z,7.53
2019-03-20T05:55:51.653Z,9.30
2019-03-20T05:58:24.345Z,15.20
2019-03-20T06:00:56.915Z,7.87
2019-03-20T06:03:28.265Z,5.77
2019-03-20T06:06:00.489Z,13.10
2019-03-20T06:08:31.308Z,19.03
2019-03-20T06:11:01.602Z,14.10
2019-03-20T06:13:41.265Z,15.87
2019-03-20T06:16:16.618Z,8.07
2019-03-20T06:18:45.710Z,7.60
2019-03-20T06:21:29.963Z,10.17
2019-03-20T06:24:07.943Z,8.43
2019-03-20T06:26:43.482Z,12.87
2019-03-20T06:29:12.976Z,9.67
2019-03-20T06:31:43.404Z,10.57
2019-03-20T06:34:18.669Z,14.23
2019-03-20T06:36:47.789Z,10.23
2019-03-20T06:39:22.358Z,11.93
2019-03-20T06:41:51.534Z,11.60
2019-03-20T06:44:20.777Z,10.07
2019-03-20T06:46:50.955Z,11.23
2019-03-20T06:49:20.113Z,14.47
2019-03-20T06:51:49.536Z,10.27
2019-03-20T06:54:18.696Z,8.83
2019-03-20T06:56:54.161Z,9.43
2019-03-20T07:00:11.370Z,9.77
2019-03-20T07:02:46.245Z,7.70
2019-03-20T07:06:05.743Z,8.87
2019-03-20T07:09:17.241Z,9.30
2019-03-20T07:11:46.924Z,9.27
2019-03-20T07:14:16.116Z,9.53
2019-03-20T07:16:45.268Z,8.43
2019-03-20T07:19:16.451Z,11.07
2019-03-20T07:21:53.789Z,8.20
2019-03-20T07:24:23.188Z,9.33
2019-03-20T07:26:53.998Z,10.87
2019-03-20T07:29:23.859Z,9.00
2019-03-20T07:31:59.008Z,9.10
2019-03-20T07:34:30.453Z,8.43
2019-03-20T07:37:15.183Z,8.73
2019-03-20T07:39:50.337Z,7.77
2019-03-20T07:42:20.352Z,9.03
2019-03-20T07:44:54.920Z,8.80
2019-03-20T07:47:24.106Z,7.50
2019-03-20T07:49:59.164Z,9.73
2019-03-20T07:52:28.718Z,6.87
2019-03-20T07:55:01.321Z,9.13
2019-03-20T07:57:32.498Z,8.50
2019-03-20T08:00:03.085Z,5.93
2019-03-20T08:02:48.283Z,6.87
2019-03-20T08:05:28.415Z,5.67
2019-03-20T08:08:07.186Z,8.13
2019-03-20T08:10:33.431Z,9.67
2019-03-20T08:13:08.707Z,8.13
2019-03-20T08:15:37.801Z,9.23
2019-03-20T08:18:08.994Z,9.70
2019-03-20T08:20:45.034Z,7.43
2019-03-20T08:23:37.853Z,7.97
2019-03-20T08:26:14.346Z,9.93
2019-03-20T08:28:43.861Z,9.67
2019-03-20T08:31:17.127Z,7.03
2019-03-20T08:33:47.691Z,9.47
2019-03-20T08:36:16.880Z,9.30
2019-03-20T08:38:46.320Z,8.57
2019-03-20T08:41:16.508Z,5.90
2019-03-20T08:43:45.815Z,8.30
2019-03-20T08:46:15.681Z,9.23
2019-03-20T08:48:52.624Z,9.03
2019-03-20T08:51:22.269Z,7.87
2019-03-20T08:53:57.557Z,6.97
2019-03-20T08:56:27.223Z,8.77
2019-03-20T08:58:56.358Z,8.80
2019-03-20T09:01:28.833Z,9.87
2019-03-20T09:03:56.393Z,8.23
2019-03-20T09:06:25.597Z,8.90
2019-03-20T09:08:55.678Z,6.60
2019-03-20T09:11:37.382Z,8.70
2019-03-20T09:14:06.913Z,7.60
2019-03-20T09:16:36.499Z,7.27
2019-03-20T09:19:06.505Z,6.83
2019-03-20T09:21:38.063Z,6.10
2019-03-20T09:24:07.463Z,4.33
2019-03-20T09:26:39.660Z,6.37
2019-03-20T09:29:18.156Z,5.37
2019-03-20T09:31:44.250Z,5.63
2019-03-20T09:34:14.428Z,7.80
2019-03-20T09:36:43.736Z,5.07
2019-03-20T09:39:25.192Z,4.80
2019-03-20T09:41:56.643Z,6.43
2019-03-20T09:44:27.850Z,6.73
2019-03-20T09:46:57.405Z,5.77
2019-03-20T09:49:26.888Z,5.60
2019-03-20T09:51:57.020Z,6.57
2019-03-20T09:54:39.452Z,7.67
2019-03-20T09:57:08.553Z,5.37
2019-03-20T09:59:40.355Z,8.70
2019-03-20T10:02:18.376Z,4.93
2019-03-20T10:05:06.811Z,5.37
2019-03-20T10:07:37.058Z,5.53
2019-03-20T10:10:07.349Z,3.90
2019-03-20T10:12:38.452Z,6.43
2019-03-20T10:15:09.802Z,6.27
2019-03-20T10:17:39.007Z,3.17
2019-03-20T10:20:09.939Z,5.27
2019-03-20T10:22:44.278Z,7.17
2019-03-20T10:25:16.026Z,3.80
2019-03-20T10:27:45.807Z,4.03
2019-03-20T10:30:25.058Z,6.47
2019-03-20T10:33:02.273Z,6.93
2019-03-20T10:35:49.929Z,5.70
2019-03-20T10:38:13.715Z,5.07
2019-03-20T10:40:45.710Z,4.17
2019-03-20T10:43:15.153Z,5.63
2019-03-20T10:45:44.316Z,4.90
2019-03-20T10:48:13.508Z,4.27
2019-03-20T10:50:43.920Z,4.50
2019-03-20T10:53:20.312Z,4.93
2019-03-20T10:55:51.773Z,5.20
2019-03-20T10:58:23.617Z,5.47
2019-03-20T11:00:53.856Z,5.67
2019-03-20T11:03:23.425Z,3.07
2019-03-20T11:05:53.884Z,5.97
2019-03-20T11:08:23.957Z,5.73
2019-03-20T11:10:57.254Z,6.37
2019-03-20T11:13:26.517Z,3.87
2019-03-20T11:15:57.749Z,4.63
2019-03-20T11:18:27.710Z,5.13
2019-03-20T11:20:58.247Z,4.37
2019-03-20T11:23:33.607Z,3.67
2019-03-20T11:26:11.636Z,4.23
2019-03-20T11:28:40.798Z,5.50
2019-03-20T11:31:10.270Z,5.27
2019-03-20T11:33:43.885Z,6.80
2019-03-20T11:36:14.081Z,4.07
2019-03-20T11:38:43.226Z,2.83
2019-03-20T11:41:21.938Z,4.50
2019-03-20T11:43:53.480Z,4.67
2019-03-20T11:46:22.631Z,6.17
2019-03-20T11:48:52.298Z,19.33
2019-03-20T11:51:21.444Z,5.03
2019-03-20T11:53:50.597Z,5.40
2019-03-20T11:56:19.735Z,4.63
2019-03-20T11:58:49.371Z,3.83
2019-03-20T12:01:18.555Z,5.27
2019-03-20T12:03:48.980Z,8.47
2019-03-20T12:06:18.163Z,4.30
2019-03-20T12:08:58.918Z,5.00
2019-03-20T12:11:28.131Z,4.83
2019-03-20T12:13:57.301Z,3.10
2019-03-20T12:16:26.679Z,3.17
2019-03-20T12:18:56.121Z,5.57
2019-03-20T12:21:25.489Z,7.67
2019-03-20T12:24:15.898Z,8.77
2019-03-20T12:26:57.223Z,3.47
2019-03-20T12:29:26.895Z,4.77
2019-03-20T12:31:55.978Z,6.27
2019-03-20T12:34:25.094Z,4.30
2019-03-20T12:37:01.257Z,4.00
2019-03-20T12:39:34.465Z,4.13
2019-03-20T12:42:03.639Z,12.93
2019-03-20T12:44:33.292Z,54.00
2019-03-20T12:47:04.552Z,40.30
2019-03-20T12:49:33.726Z,55.43
2019-03-20T12:52:03.388Z,9.93
2019-03-20T12:54:33.574Z,3.80
2019-03-20T12:57:08.990Z,5.30
2019-03-20T12:59:38.262Z,4.47
2019-03-20T13:02:08.287Z,5.13
2019-03-20T13:04:39.210Z,4.83
2019-03-20T13:07:08.314Z,5.87
2019-03-20T13:09:38.830Z,5.37
2019-03-20T13:12:10.032Z,4.93
2019-03-20T13:14:40.136Z,5.40
2019-03-20T13:17:09.322Z,15.83
2019-03-20T13:19:44.945Z,40.10
2019-03-20T13:22:14.788Z,46.67
2019-03-20T13:24:44.257Z,7.80
2019-03-20T13:27:13.409Z,4.83
2019-03-20T13:29:43.330Z,5.53
2019-03-20T13:32:12.785Z,4.60
2019-03-20T13:34:41.917Z,6.40
2019-03-20T13:37:14.585Z,2.80
2019-03-20T13:39:44.252Z,4.50
2019-03-20T13:42:21.815Z,6.40
2019-03-20T13:44:51.485Z,9.47
2019-03-20T13:47:26.632Z,5.73
2019-03-20T13:49:56.770Z,5.50
2019-03-20T13:52:25.936Z,5.30
2019-03-20T13:54:55.627Z,5.73
2019-03-20T13:57:26.414Z,4.80
2019-03-20T13:59:55.597Z,5.63
2019-03-20T14:02:25.706Z,3.07
2019-03-20T14:04:54.813Z,4.77
2019-03-20T14:07:24.557Z,4.53
2019-03-20T14:09:53.863Z,4.17
2019-03-20T14:12:27.150Z,5.50
2019-03-20T14:14:56.304Z,5.00
2019-03-20T14:17:25.393Z,3.20
2019-03-20T14:19:54.618Z,3.77
2019-03-20T14:22:23.703Z,3.67
2019-03-20T14:24:52.891Z,5.10
2019-03-20T14:27:22.394Z,3.73
2019-03-20T14:29:53.931Z,5.77
2019-03-20T14:32:23.441Z,3.97
2019-03-20T14:34:54.275Z,4.13
2019-03-20T14:37:24.466Z,4.00
2019-03-20T14:39:54.521Z,4.80
2019-03-20T14:42:24.223Z,4.73
2019-03-20T14:44:53.546Z,3.90
2019-03-20T14:47:22.624Z,5.60
2019-03-20T14:49:52.837Z,5.10
2019-03-20T14:52:28.084Z,5.27
2019-03-20T14:55:03.103Z,6.43
2019-03-20T14:57:39.541Z,3.20
2019-03-20T15:00:12.731Z,3.37
2019-03-20T15:02:42.315Z,5.50
2019-03-20T15:05:13.678Z,4.77
2019-03-20T15:07:43.563Z,4.80
2019-03-20T15:10:14.882Z,7.03
2019-03-20T15:12:48.291Z,3.07
2019-03-20T15:15:23.594Z,4.83
2019-03-20T15:17:52.747Z,3.83
2019-03-20T15:20:22.027Z,3.77
2019-03-20T15:22:51.438Z,5.77
2019-03-20T15:25:22.627Z,3.33
2019-03-20T15:27:51.818Z,4.23
2019-03-20T15:30:21.044Z,3.63
2019-03-20T15:32:50.219Z,7.97
2019-03-20T15:35:19.404Z,2.30
2019-03-20T15:37:49.822Z,4.10
2019-03-20T15:40:19.323Z,5.00
2019-03-20T15:42:51.482Z,6.07
2019-03-20T15:45:21.067Z,4.03
2019-03-20T15:48:02.330Z,6.00
2019-03-20T15:50:31.519Z,6.33
2019-03-20T15:53:00.996Z,5.37
2019-03-20T15:55:31.357Z,5.17
2019-03-20T15:58:00.629Z,3.77
2019-03-20T16:00:30.749Z,5.73
2019-03-20T16:03:02.828Z,6.73
2019-03-20T16:05:32.400Z,6.17
2019-03-20T16:08:04.559Z,3.67
2019-03-20T16:10:34.741Z,3.17
2019-03-20T16:13:06.358Z,4.33
2019-03-20T16:15:37.918Z,5.13
2019-03-20T16:18:07.042Z,6.27
2019-03-20T16:20:36.318Z,3.60
2019-03-20T16:23:05.460Z,3.73
2019-03-20T16:25:45.843Z,3.93
2019-03-20T16:28:17.740Z,3.80
2019-03-20T16:30:47.735Z,5.07
2019-03-20T16:33:18.267Z,3.87
2019-03-20T16:35:47.832Z,5.33
2019-03-20T16:38:17.796Z,4.83
2019-03-20T16:40:51.069Z,3.07
2019-03-20T16:43:20.300Z,5.03
2019-03-20T16:45:49.642Z,3.13
2019-03-20T16:48:19.525Z,4.30
2019-03-20T16:50:49.211Z,8.07
2019-03-20T16:53:18.763Z,4.47
2019-03-20T16:55:47.947Z,3.83
2019-03-20T16:58:17.928Z,4.27
2019-03-20T17:00:48.535Z,5.27
2019-03-20T17:03:18.054Z,4.63
2019-03-20T17:05:49.235Z,5.60
2019-03-20T17:08:19.861Z,5.57
2019-03-20T17:10:49.353Z,6.87
2019-03-20T17:13:18.837Z,5.53
2019-03-20T17:15:48.048Z,6.13
2019-03-20T17:18:18.387Z,5.73
2019-03-20T17:20:47.669Z,8.83
2019-03-20T17:23:17.698Z,4.77
2019-03-20T17:25:46.813Z,4.10
2019-03-20T17:28:16.523Z,3.07
2019-03-20T17:30:46.092Z,5.57
2019-03-20T17:33:15.282Z,7.03
2019-03-20T17:35:44.744Z,4.43
2019-03-20T17:38:14.727Z,4.87
2019-03-20T17:40:44.447Z,2.13
2019-03-20T17:43:13.549Z,3.13
2019-03-20T17:45:43.239Z,3.77
2019-03-20T17:48:12.730Z,7.03
2019-03-20T17:50:41.843Z,6.47
2019-03-20T17:53:10.979Z,10.00
2019-03-20T17:55:40.894Z,7.27
2019-03-20T17:58:10.198Z,5.60
2019-03-20T18:00:41.410Z,7.47
2019-03-20T18:03:12.563Z,6.03
2019-03-20T18:05:43.065Z,3.83
2019-03-20T18:08:12.954Z,6.83
2019-03-20T18:10:43.170Z,7.93
2019-03-20T18:13:13.675Z,5.23
2019-03-20T18:15:45.483Z,6.53
2019-03-20T18:18:14.216Z,6.87
2019-03-20T18:20:45.033Z,10.33
2019-03-20T18:23:14.514Z,6.77
2019-03-20T18:25:44.133Z,6.27
2019-03-20T18:28:14.287Z,9.57
2019-03-20T18:30:43.930Z,5.70
2019-03-20T18:33:13.692Z,5.80
2019-03-20T18:35:44.199Z,6.13
2019-03-20T18:38:17.238Z,9.17
2019-03-20T18:40:46.888Z,6.27
2019-03-20T18:43:16.070Z,8.93
2019-03-20T18:45:45.251Z,4.57
2019-03-20T18:48:22.163Z,5.57
2019-03-20T18:50:52.299Z,5.27
2019-03-20T18:53:21.891Z,4.33
2019-03-20T18:55:51.433Z,2.87
2019-03-20T18:58:21.019Z,4.13
2019-03-20T19:00:51.625Z,5.23
2019-03-20T19:03:21.134Z,6.23
2019-03-20T19:06:14.556Z,4.20
2019-03-20T19:08:44.590Z,4.73
2019-03-20T19:11:15.260Z,4.97
2019-03-20T19:13:46.894Z,4.93
2019-03-20T19:16:19.002Z,6.27
2019-03-20T19:18:49.099Z,4.63
2019-03-20T19:21:18.907Z,6.90
2019-03-20T19:23:49.656Z,5.33
2019-03-20T19:26:19.054Z,7.27
2019-03-20T19:28:54.020Z,4.37
2019-03-20T19:31:24.138Z,4.73
2019-03-20T19:33:58.412Z,7.20
2019-03-20T19:36:35.994Z,7.20
2019-03-20T19:39:08.268Z,5.40
2019-03-20T19:41:37.884Z,6.70
2019-03-20T19:44:09.648Z,5.97
2019-03-20T19:46:42.964Z,5.73
2019-03-20T19:49:13.401Z,9.10
2019-03-20T19:51:51.083Z,7.90
2019-03-20T19:54:20.931Z,9.07
2019-03-20T19:56:50.402Z,5.73
2019-03-20T19:59:19.905Z,10.20
2019-03-20T20:01:59.851Z,9.53
2019-03-20T20:04:37.899Z,10.57
2019-03-20T20:07:07.377Z,7.93
2019-03-20T20:09:38.727Z,7.30
2019-03-20T20:12:08.248Z,8.90
2019-03-20T20:14:37.465Z,7.37
2019-03-20T20:17:25.081Z,8.07
2019-03-20T20:19:54.862Z,7.67
2019-03-20T20:22:25.332Z,6.77
2019-03-20T20:24:55.004Z,9.47
2019-03-20T20:27:30.782Z,12.77
2019-03-20T20:30:00.417Z,9.50
2019-03-20T20:32:36.017Z,8.83
2019-03-20T20:35:06.224Z,7.47
2019-03-20T20:37:41.634Z,7.57
2019-03-20T20:40:17.480Z,9.83
2019-03-20T20:43:07.786Z,9.70
2019-03-20T20:45:40.384Z,10.10
2019-03-20T20:48:10.622Z,8.80
2019-03-20T20:50:40.643Z,9.87
2019-03-20T20:53:10.035Z,10.60
2019-03-20T20:55:39.590Z,6.73
2019-03-20T20:58:09.693Z,8.97
2019-03-20T21:00:39.410Z,7.40
2019-03-20T21:03:10.828Z,4.63
2019-03-20T21:05:46.184Z,6.60
2019-03-20T21:08:21.759Z,4.53
2019-03-20T21:10:50.946Z,6.27
2019-03-20T21:13:31.684Z,7.83
2019-03-20T21:16:04.431Z,5.50
2019-03-20T21:19:10.987Z,4.87
2019-03-20T21:22:03.019Z,7.73
2019-03-20T21:24:34.703Z,5.87
2019-03-20T21:27:45.472Z,8.77
2019-03-20T21:30:47.734Z,5.40
2019-03-20T21:34:01.577Z,7.13
2019-03-20T21:37:29.947Z,6.23
2019-03-20T21:39:59.659Z,5.13
2019-03-20T21:43:17.970Z,7.90
2019-03-20T21:46:22.208Z,5.53
2019-03-20T21:48:55.055Z,4.63
2019-03-20T21:51:29.118Z,6.27
2019-03-20T21:54:46.738Z,5.97
2019-03-20T21:57:43.004Z,7.63
2019-03-20T22:01:03.688Z,6.97
2019-03-20T22:03:33.710Z,8.17
2019-03-20T22:06:39.662Z,8.67
2019-03-20T22:09:16.571Z,6.43
2019-03-20T22:12:24.998Z,11.97
2019-03-20T22:15:21.905Z,15.27
2019-03-20T22:18:19.551Z,16.10
2019-03-20T22:21:34.599Z,17.30
2019-03-20T22:24:42.073Z,12.80
2019-03-20T22:27:58.271Z,9.73
2019-03-20T22:30:39.405Z,7.70
2019-03-20T22:33:45.437Z,8.47
2019-03-20T22:36:29.576Z,11.87
2019-03-20T22:39:36.216Z,11.97
2019-03-20T22:42:30.466Z,10.10
2019-03-20T22:45:09.352Z,8.80
2019-03-20T22:48:21.067Z,14.10
2019-03-20T22:51:27.283Z,10.63
2019-03-20T22:54:38.881Z,10.33
2019-03-20T22:57:18.322Z,12.37
2019-03-20T23:00:25.304Z,10.23
2019-03-20T23:03:05.337Z,8.10
2019-03-20T23:05:44.388Z,9.03
2019-03-20T23:08:23.445Z,8.30
2019-03-20T23:11:04.164Z,8.23
2019-03-20T23:13:41.552Z,9.07
2019-03-20T23:16:21.402Z,8.20
2019-03-20T23:18:51.134Z,7.47
2019-03-20T23:21:20.835Z,10.80
2019-03-20T23:23:51.032Z,6.37
2019-03-20T23:26:22.998Z,7.10
2019-03-20T23:29:07.840Z,7.50
2019-03-20T23:31:41.451Z,10.97
2019-03-20T23:34:20.350Z,12.87
2019-03-20T23:36:53.294Z,6.60
2019-03-20T23:39:33.087Z,6.87
2019-03-20T23:42:05.948Z,9.70
2019-03-20T23:44:35.658Z,10.37
2019-03-20T23:47:11.319Z,7.90
2019-03-20T23:49:53.067Z,8.53
2019-03-20T23:52:27.204Z,7.57
2019-03-20T23:54:58.323Z,7.60
2019-03-20T23:57:30.027Z,5.47
